• Join FlightAware (Why Join?)
  • Login
  • US Flag 
Rudolph Flight #1: Scheduled 
10:25PM EST


 

Airport Tracker/Info


-or-


 

Live Flight TrackerFlight Track Log ✈ N70JB ✈ 22-Aug-2014 ✈ KFTY - KSSI

Flight Track Log - Related Links

Times and Time Zones

All times are in EDT time to prevent confusion due to time zone crossing. See the N70JB flight status page for this flight to view local times or setup timezone preferences in your user account.

Time Position Orientation Groundspeed Altitude Reporting Facility
EDT Latitude Longitude Course Direction KTS MPH feet Rate Location/Type
04:37PM 33.7667 -84.5500 270° West 115 132 1,800  Level Atlanta TRACON
04:38PM 33.7667 -84.6000 259° West 123 142 2,700 600 Climbing Atlanta TRACON
04:39PM 33.7500 -84.6333 239° Southwest 149 171 3,100 120 Climbing Atlanta TRACON
04:40PM 33.7167 -84.6667 220° Southwest 160 184 3,000 -60 Descending Atlanta TRACON
04:41PM 33.6833 -84.7000 220° Southwest 158 182 3,000  Level Atlanta TRACON
04:42PM 33.6500 -84.7333 220° Southwest 170 196 3,000  Level Atlanta TRACON
04:43PM 33.6000 -84.7167 164° South 168 193 3,000  Level Atlanta TRACON
04:44PM 33.5667 -84.7000 157° South 169 194 3,000  Level Atlanta TRACON
04:45PM 33.5167 -84.6833 164° South 167 192 3,100  Climbing Atlanta TRACON
04:46PM 33.4667 -84.6667 164° South 169 194 3,000 -60 Descending Atlanta TRACON
04:47PM 33.4167 -84.6500 164° South 166 191 3,000 360 Level Atlanta TRACON
04:48PM 33.3833 -84.6333 157° South 151 174 3,800 780 Climbing Atlanta TRACON
04:49PM 33.3500 -84.5833 129° Southeast 156 180 4,600 660 Climbing Atlanta TRACON
04:50PM 33.3333 -84.5500 121° Southeast 161 185 5,200 180 Climbing Atlanta TRACON
04:51PM 33.3000 -84.5000 129° Southeast 184 212 5,000 60 Descending Atlanta TRACON
04:52PM 33.2667 -84.4500 129° Southeast 184 212 5,400 600 Climbing Atlanta TRACON
04:53PM 33.2333 -84.4167 140° Southeast 167 192 6,200 720 Climbing Atlanta TRACON
04:54PM 33.2000 -84.3667 129° Southeast 170 196 6,900 420 Climbing Atlanta TRACON
04:55PM 33.1667 -84.3167 129° Southeast 189 217 7,100  Climbing Atlanta TRACON
04:56PM 33.1333 -84.2667 129° Southeast 192 221 7,000 -60 Descending Atlanta TRACON
04:57PM 33.1167 -84.2167 112° Southeast 195 224 7,000  Level Atlanta TRACON
04:58PM 33.0833 -84.1500 121° Southeast 198 228 7,000  Level Atlanta TRACON
04:59PM 33.0667 -84.1000 112° Southeast 195 224 7,000 60 Level Atlanta TRACON
05:00PM 33.0333 -84.0500 128° Southeast 194 223 7,200 120 Climbing Atlanta TRACON
05:01PM 33.0000 -84.0000 128° Southeast 198 228 7,300 -120 Climbing Atlanta TRACON
05:02PM 32.9667 -83.9500 128° Southeast 204 235 7,000 -60 Descending Atlanta TRACON
05:03PM 32.9167 -83.9000 140° Southeast 195 224 7,200  Climbing Atlanta TRACON
05:04PM 32.8833 -83.8667 140° Southeast 204 235 7,000 -120 Descending Atlanta TRACON
05:05PM 32.8500 -83.8167 128° Southeast 197 227 7,000  Level Atlanta TRACON
05:06PM 32.8000 -83.7667 140° Southeast 196 226 7,000  Level Atlanta TRACON
05:07PM 32.7667 -83.7333 140° Southeast 191 220 7,000  Level Atlanta TRACON
05:08PM 32.7167 -83.6833 140° Southeast 180 207 7,000  Level Atlanta TRACON
05:09PM 32.6833 -83.6500 140° Southeast 200 230 7,000  Level Atlanta TRACON
05:10PM 32.6333 -83.6000 140° Southeast 188 216 7,000  Level Atlanta TRACON
05:11PM 32.6000 -83.5500 128° Southeast 196 226 7,000  Level Atlanta TRACON
05:12PM 32.5667 -83.5000 128° Southeast 195 224 7,000  Level Atlanta TRACON
05:13PM 32.5333 -83.4500 128° Southeast 198 228 7,000  Level Atlanta TRACON
05:14PM 32.5000 -83.4000 128° Southeast 199 229 7,000  Level Atlanta TRACON
05:15PM 32.4667 -83.3500 128° Southeast 199 229 7,000  Level Atlanta TRACON
05:16PM 32.4333 -83.2833 121° Southeast 201 231 7,000  Level Atlanta TRACON
05:17PM 32.4167 -83.2333 112° Southeast 199 229 7,000  Level Atlanta TRACON
05:18PM 32.3833 -83.1833 128° Southeast 199 229 7,000  Level Atlanta TRACON
05:18PM 32.3583 -83.1483 130° Southeast 197 227 7,000  Level Jacksonville Center
05:19PM 32.3208 -83.0992 132° Southeast 212 244 7,000  Level Jacksonville Center
05:20PM 32.2856 -83.0497 130° Southeast 212 244 7,000  Level Jacksonville Center
05:21PM 32.2500 -83.0006 131° Southeast 207 238 7,000  Level Jacksonville Center
05:22PM 32.2083 -82.9539 137° Southeast 207 238 7,000 -60 Level Jacksonville Center
05:23PM 32.1728 -82.9047 131° Southeast 199 229 6,900 -60 Descending Jacksonville Center
05:24PM 32.1414 -82.8508 125° Southeast 199 229 6,900  Level Jacksonville Center
05:25PM 32.1100 -82.7969 125° Southeast 193 222 6,900  Level Jacksonville Center
05:26PM 32.0789 -82.7431 124° Southeast 198 228 6,900  Level Jacksonville Center
05:27PM 32.0494 -82.6892 123° Southeast 198 228 6,900  Level Jacksonville Center
05:28PM 32.0117 -82.6428 134° Southeast 198 228 6,900  Level Jacksonville Center
05:29PM 31.9783 -82.5939 129° Southeast 198 228 6,900  Level Jacksonville Center
05:30PM 31.9386 -82.5475 135° Southeast 198 228 6,900  Level Jacksonville Center
05:31PM 31.8986 -82.5011 135° Southeast 198 228 6,900  Level Jacksonville Center
05:32PM 31.8528 -82.4669 148° Southeast 198 228 6,900  Level Jacksonville Center
05:33PM 31.8128 -82.4256 139° Southeast 198 228 6,900  Level Jacksonville Center
05:34PM 31.7731 -82.3819 137° Southeast 198 228 6,900  Level Jacksonville Center
05:35PM 31.7331 -82.3331 134° Southeast 198 228 6,900  Level Jacksonville Center
05:36PM 31.7017 -82.2944 134° Southeast 193 222 6,900  Level Jacksonville Center
05:37PM 31.6597 -82.2531 140° Southeast 198 228 6,900  Level Jacksonville Center
05:38PM 31.6258 -82.1947 124° Southeast 198 228 6,900  Level Jacksonville Center
05:39PM 31.5922 -82.1439 128° Southeast 198 228 6,900  Level Jacksonville Center
05:40PM 31.5564 -82.0978 132° Southeast 198 228 6,900 -300 Level Jacksonville Center
05:41PM 31.5269 -82.0492 125° Southeast 198 228 6,400 -480 Descending Jacksonville Center
05:42PM 31.4994 -81.9836 116° Southeast 198 228 6,000 -480 Descending Jacksonville Center
05:43PM 31.4717 -81.9303 121° Southeast 198 228 5,500 -480 Descending Jacksonville Center
05:44PM 31.4442 -81.8772 121° Southeast 198 228 5,100 -300 Descending Jacksonville Center
05:45PM 31.4250 -81.8239 113° Southeast 192 221 5,000 -60 Descending Jacksonville Center
05:46PM 31.4036 -81.7706 115° Southeast 192 221 5,000 -360 Level Jacksonville Center
05:47PM 31.3781 -81.7100 116° Southeast 192 221 4,300 -660 Descending Jacksonville Center
05:48PM 31.3525 -81.6519 117° Southeast 192 221 3,700 -600 Descending Jacksonville Center
05:49PM 31.3289 -81.5939 115° Southeast 194 223 3,200 -600 Descending Jacksonville Center
05:50PM 31.3075 -81.5406 115° Southeast 194 223 2,600 -600 Descending Jacksonville Center